createdAt,value
2022-09-01T00:00:33.268Z,97902.91
2022-09-01T00:05:37.210Z,97903.78
2022-09-01T00:10:40.978Z,97908.72
2022-09-01T00:15:46.218Z,97896.75
2022-09-01T00:20:49.699Z,97890.88
2022-09-01T00:25:53.952Z,97895.09
2022-09-01T00:30:59.259Z,97892.63
2022-09-01T00:36:03.694Z,97890.97
2022-09-01T00:41:07.906Z,97885.72
2022-09-01T00:46:16.259Z,97890.34
2022-09-01T00:51:24.335Z,97897.50
2022-09-01T00:56:28.193Z,97894.09
2022-09-01T01:01:35.226Z,97897.28
2022-09-01T01:06:39.385Z,97888.97
2022-09-01T01:11:45.259Z,97894.34
2022-09-01T01:16:52.110Z,97888.47
2022-09-01T01:22:15.070Z,97895.09
2022-09-01T01:27:21.960Z,97895.94
2022-09-01T01:32:26.562Z,97889.47
2022-09-01T01:37:30.745Z,97899.56
2022-09-01T01:42:38.871Z,97898.00
2022-09-01T01:47:42.423Z,97894.03
2022-09-01T01:52:46.115Z,97900.22
2022-09-01T01:57:51.422Z,97891.41
2022-09-01T02:02:55.894Z,97897.22
2022-09-01T02:08:04.108Z,97901.06
2022-09-01T02:13:12.097Z,97892.13
2022-09-01T02:18:19.768Z,97905.63
2022-09-01T02:23:24.540Z,97901.28
2022-09-01T02:28:32.077Z,97888.75
2022-09-01T02:33:38.060Z,97893.16
2022-09-01T02:38:46.631Z,97895.13
2022-09-01T02:43:52.353Z,97880.03
2022-09-01T02:48:56.213Z,97882.94
2022-09-01T02:54:00.659Z,97886.75
2022-09-01T02:59:05.754Z,97878.44
2022-09-01T03:04:10.536Z,97887.88
2022-09-01T03:09:16.880Z,97878.72
2022-09-01T03:14:24.351Z,97879.56
2022-09-01T03:19:32.370Z,97874.75
2022-09-01T03:24:36.406Z,97879.97
2022-09-01T03:29:41.309Z,97882.22
2022-09-01T03:34:45.229Z,97890.59
2022-09-01T03:39:48.904Z,97889.00
2022-09-01T03:44:56.744Z,97885.72
2022-09-01T03:50:00.807Z,97892.75
2022-09-01T03:55:07.259Z,97885.34
2022-09-01T04:00:21.056Z,97889.94
2022-09-01T04:05:28.824Z,97883.69
2022-09-01T04:10:38.310Z,97883.44
2022-09-01T04:15:44.531Z,97883.56
2022-09-01T04:20:50.417Z,97889.88
2022-09-01T04:26:00.012Z,97889.56
2022-09-01T04:31:08.552Z,97889.03
2022-09-01T04:36:19.732Z,97890.00
2022-09-01T04:41:25.900Z,97895.00
2022-09-01T04:46:35.346Z,97888.59
2022-09-01T04:51:41.292Z,97888.00
2022-09-01T04:56:48.061Z,97889.09
2022-09-01T05:01:57.712Z,97894.06
2022-09-01T05:07:03.141Z,97889.81
2022-09-01T05:12:15.933Z,97900.94
2022-09-01T05:17:24.610Z,97898.06
2022-09-01T05:22:28.180Z,97900.94
2022-09-01T05:27:39.726Z,97912.53
2022-09-01T05:32:45.240Z,97910.19
2022-09-01T05:37:51.806Z,97909.84
2022-09-01T05:42:56.386Z,97917.31
2022-09-01T05:48:02.652Z,97905.28
2022-09-01T05:53:12.838Z,97907.41
2022-09-01T05:58:18.147Z,97905.88
2022-09-01T06:03:25.052Z,97914.81
2022-09-01T06:08:29.484Z,97920.88
2022-09-01T06:13:33.144Z,97918.56
2022-09-01T06:18:41.118Z,97923.47
2022-09-01T06:23:46.158Z,97916.63
2022-09-01T06:28:54.490Z,97907.53
2022-09-01T06:34:00.002Z,97912.00
2022-09-01T06:39:05.570Z,97913.56
2022-09-01T06:44:14.488Z,97919.41
2022-09-01T06:49:33.248Z,97922.28
2022-09-01T06:54:39.751Z,97922.13
2022-09-01T06:59:45.847Z,97923.81
2022-09-01T07:04:53.605Z,97915.53
2022-09-01T07:10:18.116Z,97918.41
2022-09-01T07:21:35.816Z,97920.44
2022-09-01T07:26:24.704Z,97925.00
2022-09-01T07:31:51.268Z,97920.59
2022-09-01T07:48:36.698Z,97928.13
2022-09-01T07:53:46.284Z,97926.09
2022-09-01T07:58:54.018Z,97923.94
2022-09-01T08:04:02.935Z,97932.88
2022-09-01T08:09:11.569Z,97928.44
2022-09-01T08:14:18.166Z,97933.94
2022-09-01T08:19:23.170Z,97933.16
2022-09-01T08:24:54.503Z,97930.41
2022-09-01T08:30:00.386Z,97933.66
2022-09-01T08:35:05.051Z,97936.88
2022-09-01T08:40:15.742Z,97935.34
2022-09-01T08:45:24.595Z,97924.41
2022-09-01T08:50:28.516Z,97921.44
2022-09-01T08:55:56.111Z,97925.66
2022-09-01T09:01:05.127Z,97922.97
2022-09-01T09:06:16.535Z,97930.72
2022-09-01T09:11:42.201Z,97922.75
2022-09-01T09:16:51.639Z,97923.41
2022-09-01T09:21:59.523Z,97914.28
2022-09-01T09:27:04.404Z,97913.75
2022-09-01T09:32:44.318Z,97909.44
2022-09-01T09:37:36.001Z,97903.38
2022-09-01T09:42:42.663Z,97900.22
2022-09-01T09:47:47.800Z,97896.16
2022-09-01T09:52:53.314Z,97899.50
2022-09-01T09:58:00.792Z,97892.66
2022-09-01T10:03:10.194Z,97892.66
2022-09-01T10:08:37.473Z,97893.19
2022-09-01T10:13:42.686Z,97882.56
2022-09-01T10:18:48.723Z,97884.19
2022-09-01T10:23:52.288Z,97882.56
2022-09-01T10:29:01.574Z,97886.00
2022-09-01T10:34:07.552Z,97875.75
2022-09-01T10:39:12.766Z,97877.41
2022-09-01T10:44:21.398Z,97876.19
2022-09-01T10:50:10.373Z,97878.28
2022-09-01T10:55:24.437Z,97872.22
2022-09-01T11:06:35.411Z,97882.75
2022-09-01T11:11:46.880Z,97871.28
2022-09-01T11:17:15.251Z,97871.56
2022-09-01T11:22:26.644Z,97877.06
2022-09-01T11:28:02.896Z,97876.59
2022-09-01T11:33:20.209Z,97875.50
2022-09-01T11:38:25.339Z,97869.69
2022-09-01T11:43:29.758Z,97871.78
2022-09-01T11:48:35.007Z,97866.50
2022-09-01T11:53:38.695Z,97864.59
2022-09-01T11:58:42.591Z,97863.00
2022-09-01T12:03:49.842Z,97864.44
2022-09-01T12:08:57.539Z,97856.69
2022-09-01T12:14:04.728Z,97850.91
2022-09-01T12:19:24.964Z,97846.44
2022-09-01T12:24:29.819Z,97840.44
2022-09-01T12:29:34.154Z,97838.28
2022-09-01T12:34:43.368Z,97836.63
2022-09-01T12:39:49.991Z,97829.44
2022-09-01T12:44:57.269Z,97823.41
2022-09-01T12:50:05.442Z,97824.22
2022-09-01T13:00:56.884Z,97813.13
2022-09-01T13:06:03.997Z,97813.06
2022-09-01T13:11:12.608Z,97807.66
2022-09-01T13:16:16.554Z,97817.69
2022-09-01T13:21:21.993Z,97804.19
2022-09-01T13:26:26.524Z,97802.69
2022-09-01T13:31:31.724Z,97798.38
2022-09-01T13:36:48.517Z,97800.53
2022-09-01T13:41:55.121Z,97792.41
2022-09-01T13:46:59.301Z,97784.63
2022-09-01T13:52:05.569Z,97787.69
2022-09-01T13:57:09.962Z,97777.47
2022-09-01T14:02:14.137Z,97775.13
2022-09-01T14:07:20.779Z,97775.97
2022-09-01T14:12:26.861Z,97766.19
2022-09-01T14:17:31.267Z,97774.03
2022-09-01T14:22:38.615Z,97764.47
2022-09-01T14:27:44.637Z,97775.28
2022-09-01T14:32:49.390Z,97761.00
2022-09-01T14:37:55.197Z,97763.47
2022-09-01T14:42:59.337Z,97755.53
2022-09-01T14:48:03.677Z,97761.31
2022-09-01T14:53:10.653Z,97767.88
2022-09-01T14:58:17.726Z,97767.25
2022-09-01T15:03:24.599Z,97747.22
2022-09-01T15:08:31.966Z,97748.63
2022-09-01T15:13:35.888Z,97751.50
2022-09-01T15:18:39.962Z,97746.31
2022-09-01T15:23:48.602Z,97745.66
2022-09-01T15:28:53.948Z,97745.94
2022-09-01T15:34:00.207Z,97743.44
2022-09-01T15:39:08.270Z,97741.84
2022-09-01T15:44:12.927Z,97741.75
2022-09-01T15:49:18.232Z,97731.44
2022-09-01T15:54:30.205Z,97739.97
2022-09-01T15:59:36.190Z,97727.56
2022-09-01T16:04:40.839Z,97725.88
2022-09-01T16:09:47.981Z,97725.31
2022-09-01T16:14:53.176Z,97725.22
2022-09-01T16:20:05.059Z,97722.56
2022-09-01T16:25:17.336Z,97729.13
2022-09-01T16:30:25.818Z,97724.09
2022-09-01T16:35:45.054Z,97725.94
2022-09-01T16:40:56.681Z,97721.31
2022-09-01T16:46:09.358Z,97724.41
2022-09-01T16:51:25.774Z,97724.50
2022-09-01T16:56:37.983Z,97730.16
2022-09-01T17:01:50.138Z,97725.66
2022-09-01T17:07:01.018Z,97721.41
2022-09-01T17:12:28.560Z,97730.69
2022-09-01T17:17:45.949Z,97728.44
2022-09-01T17:22:54.122Z,97731.13
2022-09-01T17:28:07.363Z,97739.53
2022-09-01T17:33:26.723Z,97739.38
2022-09-01T17:38:54.681Z,97748.50
2022-09-01T17:44:16.163Z,97745.88
2022-09-01T17:49:26.386Z,97753.91
2022-09-01T17:54:42.561Z,97752.22
2022-09-01T17:59:55.753Z,97755.78
2022-09-01T18:05:10.462Z,97751.97
2022-09-01T18:10:20.767Z,97761.28
2022-09-01T18:15:26.698Z,97760.00
2022-09-01T18:20:39.916Z,97758.38
2022-09-01T18:25:49.664Z,97769.41
2022-09-01T18:31:04.668Z,97766.94
2022-09-01T18:36:25.825Z,97779.19
2022-09-01T18:41:42.482Z,97783.63
2022-09-01T18:47:00.090Z,97790.16
2022-09-01T18:52:13.850Z,97789.03
2022-09-01T18:57:21.478Z,97792.25
2022-09-01T19:02:45.994Z,97798.38
2022-09-01T19:07:57.419Z,97802.59
2022-09-01T19:13:10.128Z,97801.88
2022-09-01T19:18:27.038Z,97804.63
2022-09-01T19:23:43.255Z,97806.34
2022-09-01T19:28:51.948Z,97809.72
2022-09-01T19:34:01.449Z,97816.06
2022-09-01T19:39:10.775Z,97814.66
2022-09-01T19:44:22.841Z,97826.03
2022-09-01T19:49:38.472Z,97825.97
2022-09-01T19:54:52.060Z,97835.44
2022-09-01T20:00:05.807Z,97831.75
2022-09-01T20:05:17.914Z,97827.38
2022-09-01T20:10:56.227Z,97826.69
2022-09-01T20:16:12.582Z,97827.56
2022-09-01T20:21:21.538Z,97833.94
2022-09-01T20:26:32.797Z,97829.88
2022-09-01T20:31:46.213Z,97828.03
2022-09-01T20:36:56.239Z,97829.75
2022-09-01T20:42:04.901Z,97833.53
2022-09-01T20:47:09.129Z,97825.66
2022-09-01T20:52:30.813Z,97826.78
2022-09-01T20:57:41.712Z,97824.13
2022-09-01T21:02:54.300Z,97823.19
2022-09-01T21:08:14.591Z,97836.09
2022-09-01T21:13:30.768Z,97826.34
2022-09-01T21:18:47.690Z,97829.38
2022-09-01T21:23:53.132Z,97835.38
2022-09-01T21:29:05.727Z,97826.31
2022-09-01T21:34:11.017Z,97836.91
2022-09-01T21:39:19.829Z,97822.97
2022-09-01T21:44:23.665Z,97826.19
2022-09-01T21:49:27.580Z,97819.69
2022-09-01T21:54:35.038Z,97819.59
2022-09-01T21:59:38.639Z,97818.25
2022-09-01T22:04:42.216Z,97822.22
2022-09-01T22:09:47.689Z,97813.03
2022-09-01T22:14:51.588Z,97805.00
2022-09-01T22:19:55.725Z,97807.28
2022-09-01T22:25:01.163Z,97807.88
2022-09-01T22:30:05.882Z,97804.06
2022-09-01T22:35:12.493Z,97803.44
2022-09-01T22:40:18.738Z,97797.44
2022-09-01T22:45:22.862Z,97794.66
2022-09-01T22:50:26.625Z,97793.72
2022-09-01T22:55:31.674Z,97797.53
2022-09-01T23:00:36.495Z,97796.94
2022-09-01T23:05:40.517Z,97784.28
2022-09-01T23:10:45.823Z,97777.91
2022-09-01T23:15:49.622Z,97778.88
2022-09-01T23:20:53.173Z,97786.31
2022-09-01T23:25:58.383Z,97777.50
2022-09-01T23:31:02.370Z,97781.72
2022-09-01T23:36:08.441Z,97772.19
2022-09-01T23:41:16.000Z,97769.41
2022-09-01T23:46:22.464Z,97770.69
2022-09-01T23:51:26.991Z,97769.31
2022-09-01T23:56:32.339Z,97759.78
